sensor_id;sensor_type;location;lat;lon;timestamp;P1;durP1;ratioP1;P2;durP2;ratioP2
9467;SDS011;4772;52.382;9.752;2022-10-31T00:01:23;13.43;;;7.00;;
9467;SDS011;4772;52.382;9.752;2022-10-31T00:03:49;15.83;;;7.73;;
9467;SDS011;4772;52.382;9.752;2022-10-31T00:06:15;13.40;;;7.60;;
9467;SDS011;4772;52.382;9.752;2022-10-31T00:08:51;15.83;;;7.73;;
9467;SDS011;4772;52.382;9.752;2022-10-31T00:11:18;19.30;;;8.60;;
9467;SDS011;4772;52.382;9.752;2022-10-31T00:13:43;16.97;;;8.00;;
9467;SDS011;4772;52.382;9.752;2022-10-31T00:16:13;17.20;;;8.30;;
9467;SDS011;4772;52.382;9.752;2022-10-31T00:18:40;15.60;;;9.00;;
9467;SDS011;4772;52.382;9.752;2022-10-31T00:21:05;16.33;;;8.90;;
9467;SDS011;4772;52.382;9.752;2022-10-31T00:23:31;13.43;;;8.03;;
9467;SDS011;4772;52.382;9.752;2022-10-31T00:26:01;20.20;;;8.90;;
9467;SDS011;4772;52.382;9.752;2022-10-31T00:28:27;18.70;;;9.00;;
9467;SDS011;4772;52.382;9.752;2022-10-31T00:30:57;17.40;;;9.20;;
9467;SDS011;4772;52.382;9.752;2022-10-31T00:33:23;15.57;;;8.60;;
9467;SDS011;4772;52.382;9.752;2022-10-31T00:35:50;14.70;;;8.67;;
9467;SDS011;4772;52.382;9.752;2022-10-31T00:38:16;16.80;;;9.40;;
9467;SDS011;4772;52.382;9.752;2022-10-31T00:40:42;21.77;;;10.63;;
9467;SDS011;4772;52.382;9.752;2022-10-31T00:43:08;15.63;;;9.50;;
9467;SDS011;4772;52.382;9.752;2022-10-31T00:45:34;21.23;;;10.20;;
9467;SDS011;4772;52.382;9.752;2022-10-31T00:48:00;19.83;;;10.30;;
9467;SDS011;4772;52.382;9.752;2022-10-31T00:50:26;15.10;;;10.00;;
9467;SDS011;4772;52.382;9.752;2022-10-31T00:52:52;19.87;;;11.03;;
9467;SDS011;4772;52.382;9.752;2022-10-31T00:55:18;20.37;;;10.70;;
9467;SDS011;4772;52.382;9.752;2022-10-31T00:57:46;20.53;;;11.60;;
9467;SDS011;4772;52.382;9.752;2022-10-31T01:00:12;23.73;;;12.13;;
9467;SDS011;4772;52.382;9.752;2022-10-31T01:02:38;20.37;;;12.20;;
9467;SDS011;4772;52.382;9.752;2022-10-31T01:05:04;21.63;;;12.60;;
9467;SDS011;4772;52.382;9.752;2022-10-31T01:07:30;22.97;;;13.77;;
9467;SDS011;4772;52.382;9.752;2022-10-31T01:09:56;29.47;;;15.17;;
9467;SDS011;4772;52.382;9.752;2022-10-31T01:12:22;24.03;;;14.10;;
9467;SDS011;4772;52.382;9.752;2022-10-31T01:14:48;25.60;;;14.43;;
9467;SDS011;4772;52.382;9.752;2022-10-31T01:17:14;24.80;;;14.97;;
9467;SDS011;4772;52.382;9.752;2022-10-31T01:19:40;25.43;;;15.33;;
9467;SDS011;4772;52.382;9.752;2022-10-31T01:22:06;22.23;;;15.77;;
9467;SDS011;4772;52.382;9.752;2022-10-31T01:24:32;30.97;;;17.37;;
9467;SDS011;4772;52.382;9.752;2022-10-31T01:26:58;28.60;;;16.63;;
9467;SDS011;4772;52.382;9.752;2022-10-31T01:29:24;22.53;;;16.23;;
9467;SDS011;4772;52.382;9.752;2022-10-31T01:31:50;30.77;;;17.53;;
9467;SDS011;4772;52.382;9.752;2022-10-31T01:34:16;27.83;;;16.83;;
9467;SDS011;4772;52.382;9.752;2022-10-31T01:36:43;27.53;;;18.37;;
9467;SDS011;4772;52.382;9.752;2022-10-31T01:39:13;31.80;;;18.63;;
9467;SDS011;4772;52.382;9.752;2022-10-31T01:41:40;32.43;;;19.97;;
9467;SDS011;4772;52.382;9.752;2022-10-31T01:46:40;35.83;;;20.07;;
9467;SDS011;4772;52.382;9.752;2022-10-31T01:49:41;33.57;;;21.07;;
9467;SDS011;4772;52.382;9.752;2022-10-31T01:52:01;31.53;;;20.73;;
9467;SDS011;4772;52.382;9.752;2022-10-31T01:54:29;37.33;;;21.60;;
9467;SDS011;4772;52.382;9.752;2022-10-31T01:56:58;35.83;;;21.43;;
9467;SDS011;4772;52.382;9.752;2022-10-31T01:59:25;34.90;;;22.07;;
9467;SDS011;4772;52.382;9.752;2022-10-31T02:01:53;37.27;;;21.77;;
9467;SDS011;4772;52.382;9.752;2022-10-31T02:04:19;35.77;;;22.53;;
9467;SDS011;4772;52.382;9.752;2022-10-31T02:06:54;38.60;;;23.73;;
9467;SDS011;4772;52.382;9.752;2022-10-31T02:09:21;38.40;;;23.27;;
9467;SDS011;4772;52.382;9.752;2022-10-31T02:11:52;39.43;;;23.73;;
9467;SDS011;4772;52.382;9.752;2022-10-31T02:14:18;38.37;;;23.67;;
9467;SDS011;4772;52.382;9.752;2022-10-31T02:16:46;36.70;;;24.40;;
9467;SDS011;4772;52.382;9.752;2022-10-31T02:19:13;38.50;;;23.77;;
9467;SDS011;4772;52.382;9.752;2022-10-31T02:21:46;39.57;;;25.70;;
9467;SDS011;4772;52.382;9.752;2022-10-31T02:32:07;39.83;;;25.30;;
9467;SDS011;4772;52.382;9.752;2022-10-31T02:39:40;40.47;;;25.57;;
9467;SDS011;4772;52.382;9.752;2022-10-31T02:42:13;39.83;;;25.77;;
9467;SDS011;4772;52.382;9.752;2022-10-31T02:44:48;40.27;;;26.37;;
9467;SDS011;4772;52.382;9.752;2022-10-31T02:47:16;37.23;;;24.97;;
9467;SDS011;4772;52.382;9.752;2022-10-31T02:49:56;43.90;;;26.80;;
9467;SDS011;4772;52.382;9.752;2022-10-31T02:52:27;37.63;;;25.43;;
9467;SDS011;4772;52.382;9.752;2022-10-31T02:54:54;39.10;;;25.13;;
9467;SDS011;4772;52.382;9.752;2022-10-31T02:57:21;42.13;;;26.50;;
9467;SDS011;4772;52.382;9.752;2022-10-31T02:59:47;45.77;;;25.60;;
9467;SDS011;4772;52.382;9.752;2022-10-31T03:04:43;43.17;;;26.07;;
9467;SDS011;4772;52.382;9.752;2022-10-31T03:12:39;44.93;;;27.10;;
9467;SDS011;4772;52.382;9.752;2022-10-31T03:17:41;43.57;;;26.20;;
9467;SDS011;4772;52.382;9.752;2022-10-31T03:20:10;40.93;;;25.90;;
9467;SDS011;4772;52.382;9.752;2022-10-31T03:22:37;36.37;;;25.43;;
9467;SDS011;4772;52.382;9.752;2022-10-31T03:25:03;41.13;;;26.07;;
9467;SDS011;4772;52.382;9.752;2022-10-31T03:27:31;41.70;;;24.83;;
9467;SDS011;4772;52.382;9.752;2022-10-31T03:29:59;43.83;;;26.90;;
9467;SDS011;4772;52.382;9.752;2022-10-31T03:34:56;42.07;;;27.63;;
9467;SDS011;4772;52.382;9.752;2022-10-31T03:37:22;49.30;;;27.97;;
9467;SDS011;4772;52.382;9.752;2022-10-31T03:39:50;43.37;;;27.33;;
9467;SDS011;4772;52.382;9.752;2022-10-31T03:44:44;42.60;;;26.77;;
9467;SDS011;4772;52.382;9.752;2022-10-31T03:47:11;41.53;;;25.90;;
9467;SDS011;4772;52.382;9.752;2022-10-31T03:49:37;43.53;;;26.60;;
9467;SDS011;4772;52.382;9.752;2022-10-31T03:52:16;44.17;;;26.63;;
9467;SDS011;4772;52.382;9.752;2022-10-31T03:54:46;46.07;;;27.53;;
9467;SDS011;4772;52.382;9.752;2022-10-31T03:57:24;43.67;;;26.10;;
9467;SDS011;4772;52.382;9.752;2022-10-31T03:59:58;44.13;;;27.23;;
9467;SDS011;4772;52.382;9.752;2022-10-31T04:02:28;44.77;;;27.73;;
9467;SDS011;4772;52.382;9.752;2022-10-31T04:04:55;47.30;;;27.20;;
9467;SDS011;4772;52.382;9.752;2022-10-31T04:07:21;47.00;;;27.47;;
9467;SDS011;4772;52.382;9.752;2022-10-31T04:09:48;45.30;;;27.23;;
9467;SDS011;4772;52.382;9.752;2022-10-31T04:12:15;42.80;;;28.17;;
9467;SDS011;4772;52.382;9.752;2022-10-31T04:14:43;41.93;;;26.90;;
9467;SDS011;4772;52.382;9.752;2022-10-31T04:17:11;46.33;;;27.27;;
9467;SDS011;4772;52.382;9.752;2022-10-31T04:19:38;45.93;;;27.13;;
9467;SDS011;4772;52.382;9.752;2022-10-31T04:22:04;43.70;;;26.13;;
9467;SDS011;4772;52.382;9.752;2022-10-31T04:24:30;44.63;;;27.70;;
9467;SDS011;4772;52.382;9.752;2022-10-31T04:26:56;46.80;;;27.77;;
9467;SDS011;4772;52.382;9.752;2022-10-31T04:29:22;44.37;;;28.77;;
9467;SDS011;4772;52.382;9.752;2022-10-31T04:31:48;42.70;;;27.90;;
9467;SDS011;4772;52.382;9.752;2022-10-31T04:34:14;48.63;;;28.30;;
9467;SDS011;4772;52.382;9.752;2022-10-31T04:36:40;45.57;;;27.87;;
9467;SDS011;4772;52.382;9.752;2022-10-31T04:39:06;41.60;;;28.10;;
9467;SDS011;4772;52.382;9.752;2022-10-31T04:41:32;47.30;;;28.13;;
9467;SDS011;4772;52.382;9.752;2022-10-31T04:43:58;41.90;;;26.53;;
9467;SDS011;4772;52.382;9.752;2022-10-31T04:46:24;48.07;;;26.93;;
9467;SDS011;4772;52.382;9.752;2022-10-31T04:48:50;51.90;;;28.30;;
9467;SDS011;4772;52.382;9.752;2022-10-31T04:51:16;48.40;;;27.23;;
9467;SDS011;4772;52.382;9.752;2022-10-31T04:53:42;44.77;;;28.70;;
9467;SDS011;4772;52.382;9.752;2022-10-31T04:56:08;50.90;;;28.93;;
9467;SDS011;4772;52.382;9.752;2022-10-31T04:58:34;45.50;;;27.30;;
9467;SDS011;4772;52.382;9.752;2022-10-31T05:01:00;46.80;;;28.67;;
9467;SDS011;4772;52.382;9.752;2022-10-31T05:03:26;44.00;;;27.50;;
9467;SDS011;4772;52.382;9.752;2022-10-31T05:05:52;45.67;;;28.13;;
9467;SDS011;4772;52.382;9.752;2022-10-31T05:08:18;45.67;;;27.13;;
9467;SDS011;4772;52.382;9.752;2022-10-31T05:10:44;46.23;;;28.07;;
9467;SDS011;4772;52.382;9.752;2022-10-31T05:13:09;46.07;;;27.23;;
9467;SDS011;4772;52.382;9.752;2022-10-31T05:15:36;44.20;;;27.07;;
9467;SDS011;4772;52.382;9.752;2022-10-31T05:18:02;48.67;;;27.60;;
9467;SDS011;4772;52.382;9.752;2022-10-31T05:20:29;43.53;;;27.50;;
9467;SDS011;4772;52.382;9.752;2022-10-31T05:22:55;46.00;;;28.30;;
9467;SDS011;4772;52.382;9.752;2022-10-31T05:25:22;44.33;;;28.33;;
9467;SDS011;4772;52.382;9.752;2022-10-31T05:27:50;43.03;;;28.37;;
9467;SDS011;4772;52.382;9.752;2022-10-31T05:30:17;47.27;;;28.63;;
9467;SDS011;4772;52.382;9.752;2022-10-31T05:32:45;44.50;;;28.33;;
9467;SDS011;4772;52.382;9.752;2022-10-31T05:35:12;48.87;;;29.17;;
9467;SDS011;4772;52.382;9.752;2022-10-31T05:37:39;44.03;;;28.20;;
9467;SDS011;4772;52.382;9.752;2022-10-31T05:40:05;46.77;;;27.60;;
9467;SDS011;4772;52.382;9.752;2022-10-31T05:42:32;49.83;;;28.73;;
9467;SDS011;4772;52.382;9.752;2022-10-31T05:44:58;51.23;;;29.63;;
9467;SDS011;4772;52.382;9.752;2022-10-31T05:47:24;44.07;;;27.23;;
9467;SDS011;4772;52.382;9.752;2022-10-31T05:49:50;45.97;;;26.80;;
9467;SDS011;4772;52.382;9.752;2022-10-31T05:52:16;44.73;;;27.57;;
9467;SDS011;4772;52.382;9.752;2022-10-31T05:54:42;52.90;;;26.80;;
9467;SDS011;4772;52.382;9.752;2022-10-31T05:57:08;46.77;;;27.30;;
9467;SDS011;4772;52.382;9.752;2022-10-31T05:59:34;40.73;;;27.80;;
9467;SDS011;4772;52.382;9.752;2022-10-31T06:02:00;45.50;;;27.13;;
9467;SDS011;4772;52.382;9.752;2022-10-31T06:04:26;46.57;;;26.93;;
9467;SDS011;4772;52.382;9.752;2022-10-31T06:06:52;42.87;;;27.93;;
9467;SDS011;4772;52.382;9.752;2022-10-31T06:09:18;46.47;;;27.47;;
9467;SDS011;4772;52.382;9.752;2022-10-31T06:11:44;46.73;;;27.20;;
9467;SDS011;4772;52.382;9.752;2022-10-31T06:14:10;46.43;;;27.17;;
9467;SDS011;4772;52.382;9.752;2022-10-31T06:16:36;41.07;;;26.17;;
9467;SDS011;4772;52.382;9.752;2022-10-31T06:19:02;42.60;;;25.30;;
9467;SDS011;4772;52.382;9.752;2022-10-31T06:21:28;40.97;;;27.37;;
9467;SDS011;4772;52.382;9.752;2022-10-31T06:23:54;40.87;;;26.60;;
9467;SDS011;4772;52.382;9.752;2022-10-31T06:26:20;41.43;;;26.00;;
9467;SDS011;4772;52.382;9.752;2022-10-31T06:28:46;43.87;;;26.93;;
9467;SDS011;4772;52.382;9.752;2022-10-31T06:31:11;42.80;;;26.17;;
9467;SDS011;4772;52.382;9.752;2022-10-31T06:33:37;37.33;;;25.63;;
9467;SDS011;4772;52.382;9.752;2022-10-31T06:36:04;39.30;;;25.97;;
9467;SDS011;4772;52.382;9.752;2022-10-31T06:38:30;39.60;;;24.30;;
9467;SDS011;4772;52.382;9.752;2022-10-31T06:40:55;43.27;;;26.03;;
9467;SDS011;4772;52.382;9.752;2022-10-31T06:43:21;43.30;;;25.43;;
9467;SDS011;4772;52.382;9.752;2022-10-31T06:45:47;39.73;;;24.23;;
9467;SDS011;4772;52.382;9.752;2022-10-31T06:48:13;39.83;;;24.63;;
9467;SDS011;4772;52.382;9.752;2022-10-31T06:50:39;39.63;;;24.93;;
9467;SDS011;4772;52.382;9.752;2022-10-31T06:53:05;38.83;;;24.90;;
9467;SDS011;4772;52.382;9.752;2022-10-31T06:55:31;34.77;;;23.80;;
9467;SDS011;4772;52.382;9.752;2022-10-31T06:57:58;35.70;;;23.83;;
9467;SDS011;4772;52.382;9.752;2022-10-31T07:00:25;39.47;;;23.20;;
9467;SDS011;4772;52.382;9.752;2022-10-31T07:02:59;38.33;;;23.90;;
9467;SDS011;4772;52.382;9.752;2022-10-31T07:05:25;41.93;;;23.10;;
9467;SDS011;4772;52.382;9.752;2022-10-31T07:07:52;37.67;;;22.57;;
9467;SDS011;4772;52.382;9.752;2022-10-31T07:10:18;37.53;;;22.03;;
9467;SDS011;4772;52.382;9.752;2022-10-31T07:12:44;34.47;;;23.53;;
9467;SDS011;4772;52.382;9.752;2022-10-31T07:15:10;33.47;;;21.83;;
9467;SDS011;4772;52.382;9.752;2022-10-31T07:17:36;33.20;;;21.13;;
9467;SDS011;4772;52.382;9.752;2022-10-31T07:20:02;30.20;;;21.07;;
9467;SDS011;4772;52.382;9.752;2022-10-31T07:22:32;33.30;;;22.10;;
9467;SDS011;4772;52.382;9.752;2022-10-31T07:24:58;28.73;;;19.53;;
9467;SDS011;4772;52.382;9.752;2022-10-31T07:27:24;31.90;;;19.60;;
9467;SDS011;4772;52.382;9.752;2022-10-31T07:29:50;34.47;;;19.83;;
9467;SDS011;4772;52.382;9.752;2022-10-31T07:32:16;31.57;;;20.33;;
9467;SDS011;4772;52.382;9.752;2022-10-31T07:34:42;32.23;;;20.60;;
9467;SDS011;4772;52.382;9.752;2022-10-31T07:37:08;29.03;;;19.07;;
9467;SDS011;4772;52.382;9.752;2022-10-31T07:39:34;26.40;;;19.10;;
9467;SDS011;4772;52.382;9.752;2022-10-31T07:42:00;28.57;;;18.70;;
9467;SDS011;4772;52.382;9.752;2022-10-31T07:44:26;29.57;;;18.73;;
9467;SDS011;4772;52.382;9.752;2022-10-31T07:46:52;26.30;;;17.83;;
9467;SDS011;4772;52.382;9.752;2022-10-31T07:49:17;26.20;;;18.67;;
9467;SDS011;4772;52.382;9.752;2022-10-31T07:51:43;25.60;;;17.53;;
9467;SDS011;4772;52.382;9.752;2022-10-31T07:54:09;27.33;;;17.53;;
9467;SDS011;4772;52.382;9.752;2022-10-31T07:56:36;31.20;;;18.47;;
9467;SDS011;4772;52.382;9.752;2022-10-31T07:59:02;26.87;;;17.57;;
9467;SDS011;4772;52.382;9.752;2022-10-31T08:01:28;24.37;;;17.43;;
9467;SDS011;4772;52.382;9.752;2022-10-31T08:03:53;29.10;;;17.83;;
9467;SDS011;4772;52.382;9.752;2022-10-31T08:06:19;25.53;;;17.73;;
9467;SDS011;4772;52.382;9.752;2022-10-31T08:08:45;32.07;;;17.20;;
9467;SDS011;4772;52.382;9.752;2022-10-31T08:11:11;27.30;;;17.80;;
9467;SDS011;4772;52.382;9.752;2022-10-31T08:13:37;25.03;;;17.47;;
9467;SDS011;4772;52.382;9.752;2022-10-31T08:16:03;26.87;;;16.37;;
9467;SDS011;4772;52.382;9.752;2022-10-31T08:18:32;26.30;;;15.33;;
9467;SDS011;4772;52.382;9.752;2022-10-31T08:20:58;20.90;;;14.30;;
9467;SDS011;4772;52.382;9.752;2022-10-31T08:23:24;20.60;;;14.43;;
9467;SDS011;4772;52.382;9.752;2022-10-31T08:25:50;24.60;;;14.60;;
9467;SDS011;4772;52.382;9.752;2022-10-31T08:28:16;23.63;;;15.57;;
9467;SDS011;4772;52.382;9.752;2022-10-31T08:30:42;18.67;;;14.63;;
9467;SDS011;4772;52.382;9.752;2022-10-31T08:33:13;23.60;;;14.97;;
9467;SDS011;4772;52.382;9.752;2022-10-31T08:35:39;19.97;;;14.10;;
9467;SDS011;4772;52.382;9.752;2022-10-31T08:38:11;21.73;;;14.53;;
9467;SDS011;4772;52.382;9.752;2022-10-31T08:40:58;22.13;;;14.77;;
9467;SDS011;4772;52.382;9.752;2022-10-31T08:43:24;18.93;;;14.27;;
9467;SDS011;4772;52.382;9.752;2022-10-31T08:45:50;21.50;;;14.23;;
9467;SDS011;4772;52.382;9.752;2022-10-31T08:48:19;24.67;;;15.07;;
9467;SDS011;4772;52.382;9.752;2022-10-31T08:50:45;21.42;;;14.50;;
9467;SDS011;4772;52.382;9.752;2022-10-31T08:53:15;22.60;;;14.40;;
9467;SDS011;4772;52.382;9.752;2022-10-31T08:55:42;21.23;;;14.50;;
9467;SDS011;4772;52.382;9.752;2022-10-31T08:58:18;21.25;;;14.38;;
9467;SDS011;4772;52.382;9.752;2022-10-31T09:00:45;19.27;;;14.00;;
9467;SDS011;4772;52.382;9.752;2022-10-31T09:03:15;21.98;;;14.23;;
9467;SDS011;4772;52.382;9.752;2022-10-31T09:05:41;22.45;;;14.77;;
9467;SDS011;4772;52.382;9.752;2022-10-31T09:08:07;20.90;;;15.02;;
9467;SDS011;4772;52.382;9.752;2022-10-31T09:10:34;18.75;;;13.45;;
9467;SDS011;4772;52.382;9.752;2022-10-31T09:13:03;21.88;;;15.10;;
9467;SDS011;4772;52.382;9.752;2022-10-31T09:15:31;21.83;;;15.15;;
9467;SDS011;4772;52.382;9.752;2022-10-31T09:17:57;21.88;;;15.05;;
9467;SDS011;4772;52.382;9.752;2022-10-31T09:20:23;22.52;;;14.55;;
9467;SDS011;4772;52.382;9.752;2022-10-31T09:22:56;20.38;;;14.40;;
9467;SDS011;4772;52.382;9.752;2022-10-31T09:25:22;19.25;;;15.13;;
9467;SDS011;4772;52.382;9.752;2022-10-31T09:27:48;21.23;;;15.48;;
9467;SDS011;4772;52.382;9.752;2022-10-31T09:30:14;21.63;;;14.73;;
9467;SDS011;4772;52.382;9.752;2022-10-31T09:32:40;21.60;;;15.25;;
9467;SDS011;4772;52.382;9.752;2022-10-31T09:35:07;22.70;;;15.85;;
9467;SDS011;4772;52.382;9.752;2022-10-31T09:37:33;21.83;;;14.77;;
9467;SDS011;4772;52.382;9.752;2022-10-31T09:39:59;23.50;;;15.15;;
9467;SDS011;4772;52.382;9.752;2022-10-31T09:42:35;21.77;;;14.07;;
9467;SDS011;4772;52.382;9.752;2022-10-31T09:45:15;20.05;;;14.13;;
9467;SDS011;4772;52.382;9.752;2022-10-31T09:48:20;22.65;;;14.70;;
9467;SDS011;4772;52.382;9.752;2022-10-31T09:50:46;19.60;;;14.13;;
9467;SDS011;4772;52.382;9.752;2022-10-31T09:53:19;20.75;;;13.68;;
9467;SDS011;4772;52.382;9.752;2022-10-31T09:55:47;22.77;;;13.90;;
9467;SDS011;4772;52.382;9.752;2022-10-31T09:58:18;22.88;;;14.35;;
9467;SDS011;4772;52.382;9.752;2022-10-31T10:00:45;21.95;;;13.27;;
9467;SDS011;4772;52.382;9.752;2022-10-31T10:03:21;22.20;;;13.40;;
9467;SDS011;4772;52.382;9.752;2022-10-31T10:05:52;23.20;;;14.93;;
9467;SDS011;4772;52.382;9.752;2022-10-31T10:08:20;24.97;;;15.50;;
9467;SDS011;4772;52.382;9.752;2022-10-31T10:13:50;21.90;;;13.57;;
9467;SDS011;4772;52.382;9.752;2022-10-31T10:19:33;19.10;;;12.90;;
9467;SDS011;4772;52.382;9.752;2022-10-31T10:29:58;20.47;;;11.10;;
9467;SDS011;4772;52.382;9.752;2022-10-31T10:32:29;17.57;;;11.40;;
9467;SDS011;4772;52.382;9.752;2022-10-31T10:35:10;18.80;;;11.40;;
9467;SDS011;4772;52.382;9.752;2022-10-31T10:37:38;16.67;;;11.50;;
9467;SDS011;4772;52.382;9.752;2022-10-31T10:40:24;18.50;;;11.87;;
9467;SDS011;4772;52.382;9.752;2022-10-31T10:42:53;19.00;;;11.27;;
9467;SDS011;4772;52.382;9.752;2022-10-31T10:45:40;19.20;;;11.37;;
9467;SDS011;4772;52.382;9.752;2022-10-31T10:48:30;18.10;;;11.03;;
9467;SDS011;4772;52.382;9.752;2022-10-31T10:50:57;19.67;;;11.87;;
9467;SDS011;4772;52.382;9.752;2022-10-31T10:58:26;22.70;;;11.97;;
9467;SDS011;4772;52.382;9.752;2022-10-31T11:00:52;18.77;;;11.70;;
9467;SDS011;4772;52.382;9.752;2022-10-31T11:03:19;18.57;;;11.60;;
9467;SDS011;4772;52.382;9.752;2022-10-31T11:08:27;17.70;;;10.83;;
9467;SDS011;4772;52.382;9.752;2022-10-31T11:13:39;16.17;;;10.93;;
9467;SDS011;4772;52.382;9.752;2022-10-31T11:16:07;18.53;;;10.53;;
9467;SDS011;4772;52.382;9.752;2022-10-31T11:18:36;18.50;;;10.67;;
9467;SDS011;4772;52.382;9.752;2022-10-31T11:21:03;18.50;;;11.03;;
9467;SDS011;4772;52.382;9.752;2022-10-31T11:23:29;17.87;;;10.20;;
9467;SDS011;4772;52.382;9.752;2022-10-31T11:25:56;15.03;;;9.10;;
9467;SDS011;4772;52.382;9.752;2022-10-31T11:28:29;15.33;;;9.30;;
9467;SDS011;4772;52.382;9.752;2022-10-31T11:31:12;13.83;;;8.93;;
9467;SDS011;4772;52.382;9.752;2022-10-31T11:33:46;16.27;;;9.30;;
9467;SDS011;4772;52.382;9.752;2022-10-31T11:36:26;15.40;;;8.93;;
9467;SDS011;4772;52.382;9.752;2022-10-31T11:38:52;13.50;;;8.52;;
9467;SDS011;4772;52.382;9.752;2022-10-31T11:41:28;17.25;;;8.65;;
9467;SDS011;4772;52.382;9.752;2022-10-31T11:44:02;12.48;;;7.63;;
9467;SDS011;4772;52.382;9.752;2022-10-31T11:46:33;15.80;;;7.22;;
9467;SDS011;4772;52.382;9.752;2022-10-31T11:49:00;12.23;;;7.00;;
9467;SDS011;4772;52.382;9.752;2022-10-31T11:51:27;13.80;;;6.97;;
9467;SDS011;4772;52.382;9.752;2022-10-31T11:53:55;15.02;;;6.95;;
9467;SDS011;4772;52.382;9.752;2022-10-31T11:56:21;10.95;;;7.35;;
9467;SDS011;4772;52.382;9.752;2022-10-31T11:59:33;14.00;;;8.48;;
9467;SDS011;4772;52.382;9.752;2022-10-31T12:01:34;16.15;;;7.88;;
9467;SDS011;4772;52.382;9.752;2022-10-31T12:04:05;14.98;;;7.88;;
9467;SDS011;4772;52.382;9.752;2022-10-31T12:06:36;14.35;;;7.22;;
9467;SDS011;4772;52.382;9.752;2022-10-31T12:09:08;13.50;;;7.60;;
9467;SDS011;4772;52.382;9.752;2022-10-31T12:11:44;13.20;;;7.50;;
9467;SDS011;4772;52.382;9.752;2022-10-31T12:17:16;10.13;;;6.68;;
9467;SDS011;4772;52.382;9.752;2022-10-31T12:25:02;10.73;;;6.93;;
9467;SDS011;4772;52.382;9.752;2022-10-31T12:27:54;15.40;;;7.43;;
9467;SDS011;4772;52.382;9.752;2022-10-31T12:30:26;14.87;;;8.00;;
9467;SDS011;4772;52.382;9.752;2022-10-31T12:38:12;12.85;;;8.48;;
9467;SDS011;4772;52.382;9.752;2022-10-31T12:43:33;12.10;;;6.53;;
9467;SDS011;4772;52.382;9.752;2022-10-31T12:46:00;12.65;;;7.57;;
9467;SDS011;4772;52.382;9.752;2022-10-31T12:53:40;15.77;;;9.55;;
9467;SDS011;4772;52.382;9.752;2022-10-31T12:56:18;16.13;;;10.45;;
9467;SDS011;4772;52.382;9.752;2022-10-31T12:58:53;14.70;;;10.27;;
9467;SDS011;4772;52.382;9.752;2022-10-31T13:01:26;21.23;;;10.73;;
9467;SDS011;4772;52.382;9.752;2022-10-31T13:06:22;17.88;;;10.75;;
9467;SDS011;4772;52.382;9.752;2022-10-31T13:08:51;16.92;;;11.07;;
9467;SDS011;4772;52.382;9.752;2022-10-31T13:11:22;15.07;;;10.48;;
9467;SDS011;4772;52.382;9.752;2022-10-31T13:16:19;26.23;;;11.25;;
9467;SDS011;4772;52.382;9.752;2022-10-31T13:19:21;17.75;;;10.32;;
9467;SDS011;4772;52.382;9.752;2022-10-31T13:21:44;16.90;;;10.07;;
9467;SDS011;4772;52.382;9.752;2022-10-31T13:24:13;14.07;;;9.02;;
9467;SDS011;4772;52.382;9.752;2022-10-31T13:26:42;15.93;;;9.32;;
9467;SDS011;4772;52.382;9.752;2022-10-31T13:29:15;16.70;;;8.95;;
9467;SDS011;4772;52.382;9.752;2022-10-31T13:31:43;14.23;;;8.45;;
9467;SDS011;4772;52.382;9.752;2022-10-31T13:34:33;12.57;;;8.07;;
9467;SDS011;4772;52.382;9.752;2022-10-31T13:36:58;13.98;;;7.80;;
9467;SDS011;4772;52.382;9.752;2022-10-31T13:42:30;13.77;;;8.45;;
9467;SDS011;4772;52.382;9.752;2022-10-31T13:50:24;16.23;;;9.60;;
9467;SDS011;4772;52.382;9.752;2022-10-31T13:52:50;16.55;;;9.90;;
9467;SDS011;4772;52.382;9.752;2022-10-31T13:55:36;22.55;;;9.68;;
9467;SDS011;4772;52.382;9.752;2022-10-31T13:58:03;20.20;;;11.13;;
9467;SDS011;4772;52.382;9.752;2022-10-31T14:00:30;20.47;;;11.83;;
9467;SDS011;4772;52.382;9.752;2022-10-31T14:03:00;23.45;;;12.73;;
9467;SDS011;4772;52.382;9.752;2022-10-31T14:05:30;21.77;;;11.97;;
9467;SDS011;4772;52.382;9.752;2022-10-31T14:07:58;20.10;;;12.47;;
9467;SDS011;4772;52.382;9.752;2022-10-31T14:10:45;21.03;;;12.40;;
9467;SDS011;4772;52.382;9.752;2022-10-31T14:15:42;21.43;;;12.90;;
9467;SDS011;4772;52.382;9.752;2022-10-31T14:21:13;21.90;;;13.30;;
9467;SDS011;4772;52.382;9.752;2022-10-31T14:23:39;22.50;;;13.07;;
9467;SDS011;4772;52.382;9.752;2022-10-31T14:28:42;21.13;;;13.43;;
9467;SDS011;4772;52.382;9.752;2022-10-31T14:31:27;21.83;;;13.77;;
9467;SDS011;4772;52.382;9.752;2022-10-31T14:33:57;24.37;;;15.70;;
9467;SDS011;4772;52.382;9.752;2022-10-31T14:38:57;29.57;;;17.10;;
9467;SDS011;4772;52.382;9.752;2022-10-31T14:44:39;31.13;;;18.23;;
9467;SDS011;4772;52.382;9.752;2022-10-31T14:51:44;29.90;;;18.60;;
9467;SDS011;4772;52.382;9.752;2022-10-31T14:54:12;31.20;;;17.57;;
9467;SDS011;4772;52.382;9.752;2022-10-31T14:56:43;27.37;;;18.50;;
9467;SDS011;4772;52.382;9.752;2022-10-31T14:59:13;30.77;;;19.03;;
9467;SDS011;4772;52.382;9.752;2022-10-31T15:01:40;22.80;;;17.20;;
9467;SDS011;4772;52.382;9.752;2022-10-31T15:04:20;30.07;;;19.20;;
9467;SDS011;4772;52.382;9.752;2022-10-31T15:06:48;31.30;;;18.70;;
9467;SDS011;4772;52.382;9.752;2022-10-31T15:12:30;30.27;;;18.93;;
9467;SDS011;4772;52.382;9.752;2022-10-31T15:14:56;30.47;;;19.97;;
9467;SDS011;4772;52.382;9.752;2022-10-31T15:17:26;28.27;;;19.10;;
9467;SDS011;4772;52.382;9.752;2022-10-31T15:19:55;30.20;;;18.97;;
9467;SDS011;4772;52.382;9.752;2022-10-31T15:22:22;31.30;;;19.87;;
9467;SDS011;4772;52.382;9.752;2022-10-31T15:24:49;34.93;;;19.57;;
9467;SDS011;4772;52.382;9.752;2022-10-31T15:27:21;30.50;;;19.67;;
9467;SDS011;4772;52.382;9.752;2022-10-31T15:32:59;35.63;;;19.10;;
9467;SDS011;4772;52.382;9.752;2022-10-31T15:35:29;29.77;;;19.70;;
9467;SDS011;4772;52.382;9.752;2022-10-31T15:38:08;29.97;;;18.60;;
9467;SDS011;4772;52.382;9.752;2022-10-31T15:40:50;28.33;;;18.50;;
9467;SDS011;4772;52.382;9.752;2022-10-31T15:43:16;28.80;;;19.63;;
9467;SDS011;4772;52.382;9.752;2022-10-31T15:45:42;30.07;;;19.90;;
9467;SDS011;4772;52.382;9.752;2022-10-31T15:48:16;32.00;;;18.77;;
9467;SDS011;4772;52.382;9.752;2022-10-31T15:50:48;29.23;;;19.37;;
9467;SDS011;4772;52.382;9.752;2022-10-31T15:56:00;30.07;;;19.30;;
9467;SDS011;4772;52.382;9.752;2022-10-31T15:58:28;31.70;;;19.57;;
9467;SDS011;4772;52.382;9.752;2022-10-31T16:01:01;36.57;;;20.83;;
9467;SDS011;4772;52.382;9.752;2022-10-31T16:03:28;35.57;;;20.03;;
9467;SDS011;4772;52.382;9.752;2022-10-31T16:05:56;34.90;;;19.90;;
9467;SDS011;4772;52.382;9.752;2022-10-31T16:08:24;29.17;;;19.70;;
9467;SDS011;4772;52.382;9.752;2022-10-31T16:10:50;29.80;;;20.37;;
9467;SDS011;4772;52.382;9.752;2022-10-31T16:13:17;33.30;;;20.33;;
9467;SDS011;4772;52.382;9.752;2022-10-31T16:15:49;33.00;;;20.83;;
9467;SDS011;4772;52.382;9.752;2022-10-31T16:18:16;35.33;;;21.10;;
9467;SDS011;4772;52.382;9.752;2022-10-31T16:20:47;33.90;;;20.83;;
9467;SDS011;4772;52.382;9.752;2022-10-31T16:23:15;35.20;;;20.43;;
9467;SDS011;4772;52.382;9.752;2022-10-31T16:25:41;31.53;;;20.83;;
9467;SDS011;4772;52.382;9.752;2022-10-31T16:28:18;35.03;;;20.13;;
9467;SDS011;4772;52.382;9.752;2022-10-31T16:30:45;35.67;;;20.40;;
9467;SDS011;4772;52.382;9.752;2022-10-31T16:34:00;34.57;;;20.53;;
9467;SDS011;4772;52.382;9.752;2022-10-31T16:36:13;34.07;;;19.97;;
9467;SDS011;4772;52.382;9.752;2022-10-31T16:38:47;28.83;;;20.23;;
9467;SDS011;4772;52.382;9.752;2022-10-31T16:41:13;29.20;;;19.73;;
9467;SDS011;4772;52.382;9.752;2022-10-31T16:43:39;32.43;;;19.97;;
9467;SDS011;4772;52.382;9.752;2022-10-31T16:46:05;33.40;;;19.30;;
9467;SDS011;4772;52.382;9.752;2022-10-31T16:48:31;33.70;;;20.17;;
9467;SDS011;4772;52.382;9.752;2022-10-31T16:50:56;32.90;;;20.80;;
9467;SDS011;4772;52.382;9.752;2022-10-31T16:53:22;31.10;;;19.83;;
9467;SDS011;4772;52.382;9.752;2022-10-31T16:55:56;30.13;;;18.17;;
9467;SDS011;4772;52.382;9.752;2022-10-31T16:58:24;28.43;;;19.63;;